Pittman, Mississippi
Current Conditions -  °F | °C
As of 3:53 AM on Monday 22 Dec 2014 (Local Time) from KMCB Reporting Station
Light Rain Light Rain  
Wind Chill: 53°   Ceiling: 200
Heat Index: 53°   Visibility: 0.5mi
Dew Point: 52°   Wind: 3mph
Humidity: 96%   Direction: 120°ESE
Pressure: 29.87"   Gusts: NA
Location:  31.274°N, 89.9542°W
Report Text: KMCB 220953Z AUTO 12003KT 1/2SM -RA FG VV002 12/11 A2987 RMK AO2 RAB49 SLP113 P0000 T01170111 $
Loading
Personal Weather Stations






























Interactive Weather Map New forecast layout! Learn more

10-Day Weather Forecast

Advertisements
Track Severe Weather on mobile